Forside
METAR-TAF:

METAR-TAF

Lufthavne :

Marshalltown Municipal Airport

Marshalltown, Iowa, USA

Breddekreds: 42-06-38N, længdekreds: 092-54-58W, højde: 296 m

Aktuelle vejr

Denne rapport blev lavet for 42 minutter siden, kl. 02:53 UTC
Vind 4 kt fra vest
Temperatur -5°C
Fugtighed 86%
Tryk 1020 hPa
Sigt: 16.1 km
skyfri

METAR: KMIW 280253Z AUTO 27004KT 10SM CLR M05/M07 A3011 RMK AO2 SLP211 T10501067 58003 $

Tid: 21:35 (03:35 UTC)


TAF: fraværende

Vejrobservationer og prognoser fra mere end 4000 lufthavne (METAR og TAF).

De gule og røde prikker repræsenterer de meteorologiske stationer.

Flyt musen over at se navnet på stationen.

Så klik over at se vejr observationer og prognoser.

At skifte det kort: Klik på de grønne knapper med et sort kors for at zoome ind; på den grønne knap med en bindestreg for at zoome ud; eller på de grønne pile for tilstødende kort.


METAR-TAF: